Terminal Aerodrome Forecast
Issued by NWS

Home | Current Version | Previous Version | Text Only | Print | Product List | Glossary On
Versions: 1 2 3 4 5 6 7 8 9 10 11 12 13 14 15 16 17
000
FTUS45 KABQ 271100
TAFGUP
TAF
KGUP 271130Z 2712/2812 33005KT P6SM VCFG SKC
     FM271800 36005KT P6SM SKC
     FM280700 24005KT P6SM FEW150=

USA.gov is the U.S. government's official web portal to all federal, state and local government web resources and services.